Time;durP1;ratioP1;P1;durP2;ratioP2;P2;SDS_P1;SDS_P2;PMS_P1;PMS_P2;Temp;Humidity;BMP_temperature;BMP_pressure;BME280_temperature;BME280_humidity;BME280_pressure;Samples;Min_cycle;Max_cycle;Signal;HPM_P1;HPM_P2
2022/06/07 00:00:08;;;;;;;5.78;3.65;;;12.20;1.00;;;;;;4769905;30;20256;-71
2022/06/07 00:02:35;;;;;;;10.00;3.65;;;12.20;1.00;;;;;;4770272;30;20028;-71
2022/06/07 00:05:02;;;;;;;5.78;3.40;;;12.20;1.00;;;;;;4758373;30;20032;-71
2022/06/07 00:07:28;;;;;;;7.95;4.07;;;12.20;1.00;;;;;;4764473;30;20073;-71
2022/06/07 00:09:56;;;;;;;7.18;3.75;;;12.20;1.00;;;;;;4752073;30;20031;-71
2022/06/07 00:12:23;;;;;;;9.40;3.92;;;12.30;1.00;;;;;;4755625;30;20031;-71
2022/06/07 00:14:49;;;;;;;7.07;3.67;;;12.20;1.00;;;;;;4754730;30;20028;-71
2022/06/07 00:17:15;;;;;;;8.75;4.15;;;12.30;1.00;;;;;;4751932;30;20036;-71
2022/06/07 00:19:41;;;;;;;6.88;3.90;;;12.20;1.00;;;;;;4769228;30;20060;-71
2022/06/07 00:22:07;;;;;;;10.57;3.65;;;12.20;1.00;;;;;;4762795;30;20047;-71
2022/06/07 00:24:33;;;;;;;12.88;3.75;;;12.20;1.00;;;;;;4751905;30;20063;-72
2022/06/07 00:27:00;;;;;;;7.32;3.45;;;12.30;1.00;;;;;;4762890;30;20710;-72
2022/06/07 00:29:27;;;;;;;9.02;3.78;;;12.20;1.00;;;;;;4752424;30;20036;-71
2022/06/07 00:31:53;;;;;;;7.65;3.83;;;12.30;1.00;;;;;;4751868;30;20037;-71
2022/06/07 00:34:19;;;;;;;5.50;3.65;;;12.30;1.00;;;;;;4754253;30;20023;-71
2022/06/07 00:36:45;;;;;;;8.23;3.78;;;12.30;1.00;;;;;;4761762;30;20024;-72
2022/06/07 00:39:11;;;;;;;6.57;3.08;;;12.30;1.00;;;;;;4751371;30;20046;-72
2022/06/07 00:41:37;;;;;;;7.65;3.30;;;12.30;1.00;;;;;;4754367;30;20457;-71
2022/06/07 00:44:18;;;;;;;9.75;4.57;;;12.30;1.00;;;;;;4751267;30;20063;-71
2022/06/07 00:46:45;;;;;;;6.50;3.33;;;12.30;1.00;;;;;;4765465;30;20086;-71
2022/06/07 00:49:12;;;;;;;9.00;4.60;;;12.30;1.00;;;;;;4765871;30;20035;-71
2022/06/07 00:51:39;;;;;;;9.10;3.88;;;12.30;1.00;;;;;;4754294;30;20034;-71
2022/06/07 00:54:05;;;;;;;11.40;3.97;;;12.20;1.00;;;;;;4760851;30;20074;-72
2022/06/07 00:56:31;;;;;;;7.18;3.90;;;12.20;1.00;;;;;;4750859;30;20035;-71
2022/06/07 00:59:00;;;;;;;9.60;4.20;;;12.30;1.00;;;;;;4757748;30;20028;-71
2022/06/07 01:01:26;;;;;;;5.67;4.17;;;12.30;1.00;;;;;;4757181;30;20041;-71
2022/06/07 01:03:52;;;;;;;9.07;4.05;;;12.30;1.00;;;;;;4763371;30;20265;-71
2022/06/07 01:11:45;;;;;;;8.68;4.20;;;12.30;1.00;;;;;;4768336;30;20128;-72
2022/06/07 01:14:11;;;;;;;12.63;4.40;;;12.30;1.00;;;;;;4756648;30;20085;-71
2022/06/07 01:16:36;;;;;;;12.30;4.82;;;12.30;1.00;;;;;;4768212;30;20039;-72
2022/06/07 01:19:02;;;;;;;7.20;4.40;;;12.40;1.00;;;;;;4752687;30;20056;-71
2022/06/07 01:21:27;;;;;;;10.10;4.18;;;12.40;1.00;;;;;;4759895;30;20036;-71
2022/06/07 01:23:53;;;;;;;11.43;4.57;;;12.40;1.00;;;;;;4754637;30;20024;-71
2022/06/07 01:26:19;;;;;;;7.47;3.58;;;12.40;1.00;;;;;;4750893;30;20127;-72
2022/06/07 01:28:44;;;;;;;9.20;4.53;;;12.40;1.00;;;;;;4750805;30;20039;-71
2022/06/07 01:31:10;;;;;;;11.65;4.90;;;12.40;1.00;;;;;;4750809;30;20119;-71
2022/06/07 01:33:36;;;;;;;7.75;4.07;;;12.50;1.00;;;;;;4750883;30;20036;-71
2022/06/07 01:36:07;;;;;;;10.77;4.35;;;12.40;1.00;;;;;;4750759;30;20057;-71
2022/06/07 01:38:35;;;;;;;4.70;3.17;;;12.40;1.00;;;;;;4750815;30;20522;-71
2022/06/07 01:43:45;;;;;;;12.27;4.32;;;12.40;1.00;;;;;;4760869;30;20063;-72
2022/06/07 01:46:11;;;;;;;8.27;3.42;;;12.40;1.00;;;;;;4768336;30;20031;-71
2022/06/07 01:48:37;;;;;;;7.28;3.08;;;12.30;1.00;;;;;;4768133;30;20078;-71
2022/06/07 01:51:05;;;;;;;10.60;3.17;;;12.30;1.00;;;;;;4754778;30;20130;-71
2022/06/07 01:53:31;;;;;;;9.25;3.70;;;12.30;1.00;;;;;;4751174;30;20591;-71
2022/06/07 01:56:10;;;;;;;8.60;4.13;;;12.30;99.90;;;;;;4743118;30;20028;-72
2022/06/07 01:58:36;;;;;;;7.05;3.63;;;12.30;1.00;;;;;;4742919;30;20570;-71
2022/06/07 02:01:02;;;;;;;12.90;4.10;;;12.30;1.00;;;;;;4738033;30;20469;-71
2022/06/07 02:03:27;;;;;;;7.25;3.50;;;12.30;1.00;;;;;;4750221;30;20025;-72
2022/06/07 02:06:04;;;;;;;12.07;4.45;;;12.20;1.00;;;;;;4755148;30;20032;-71
2022/06/07 02:08:30;;;;;;;7.88;3.15;;;12.20;1.00;;;;;;4771708;30;20089;-71
2022/06/07 02:11:03;;;;;;;8.48;3.10;;;12.20;1.00;;;;;;4771670;30;20079;-71
2022/06/07 02:13:29;;;;;;;8.38;3.47;;;12.10;1.00;;;;;;4771923;30;20031;-71
2022/06/07 02:15:55;;;;;;;9.02;3.10;;;11.80;1.00;;;;;;4763496;30;20114;-72
2022/06/07 02:18:20;;;;;;;7.82;2.80;;;11.70;30.10;;;;;;4738793;30;20397;-70
2022/06/07 02:20:46;;;;;;;10.43;3.53;;;11.60;91.10;;;;;;4771562;30;20111;-71
2022/06/07 02:23:12;;;;;;;7.85;3.20;;;11.60;99.90;;;;;;4753183;30;20497;-71
2022/06/07 02:25:59;;;;;;;8.23;3.80;;;11.50;99.90;;;;;;4757305;30;20043;-71
2022/06/07 02:28:28;;;;;;;9.77;3.55;;;11.50;99.90;;;;;;4759133;30;20123;-71
2022/06/07 02:30:55;;;;;;;12.77;3.55;;;11.40;99.90;;;;;;4759463;30;20542;-70
2022/06/07 02:33:22;;;;;;;10.73;3.78;;;11.40;99.90;;;;;;4771338;30;20657;-71
2022/06/07 02:35:48;;;;;;;9.82;4.05;;;11.40;99.90;;;;;;4771379;30;20027;-71
2022/06/07 02:38:14;;;;;;;10.02;4.00;;;11.40;99.90;;;;;;4761735;30;20056;-71
2022/06/07 02:40:40;;;;;;;12.32;3.63;;;11.40;99.90;;;;;;4768632;30;20067;-71
2022/06/07 02:43:06;;;;;;;8.88;3.67;;;11.30;99.90;;;;;;4771256;30;20051;-71
2022/06/07 02:45:31;;;;;;;12.27;3.40;;;11.30;99.90;;;;;;4758271;30;20106;-71
2022/06/07 02:47:57;;;;;;;5.93;3.03;;;11.30;99.90;;;;;;4771301;30;20028;-72
2022/06/07 02:50:22;;;;;;;9.60;3.03;;;11.40;99.90;;;;;;4771223;30;20028;-71
2022/06/07 02:52:49;;;;;;;6.40;3.10;;;11.30;99.90;;;;;;4771128;30;20085;-71
2022/06/07 02:55:15;;;;;;;7.63;2.83;;;11.30;99.90;;;;;;4764963;30;20040;-72
2022/06/07 02:57:41;;;;;;;5.32;2.50;;;11.30;99.90;;;;;;4764665;30;20477;-71
2022/06/07 03:00:10;;;;;;;4.53;2.67;;;11.30;99.90;;;;;;4771472;30;20024;-71
2022/06/07 03:02:37;;;;;;;10.40;2.75;;;11.20;99.90;;;;;;4760610;30;20081;-71
2022/06/07 03:05:03;;;;;;;6.82;3.08;;;11.30;99.90;;;;;;4749161;30;20028;-71
2022/06/07 03:07:28;;;;;;;9.27;3.17;;;11.30;87.70;;;;;;4735066;30;20091;-71
2022/06/07 03:09:54;;;;;;;12.15;3.38;;;11.30;98.10;;;;;;4750094;30;20028;-72
2022/06/07 03:12:19;;;;;;;11.73;3.08;;;11.30;82.10;;;;;;4770576;30;20036;-71
2022/06/07 03:14:45;;;;;;;11.95;3.20;;;11.30;91.20;;;;;;4770731;30;20099;-71
2022/06/07 03:17:10;;;;;;;4.35;2.42;;;11.40;94.80;;;;;;4753298;30;20020;-71
2022/06/07 03:19:36;;;;;;;6.60;2.83;;;11.30;54.00;;;;;;4752831;30;20020;-71
2022/06/07 03:22:02;;;;;;;6.05;3.30;;;11.40;1.00;;;;;;4768400;30;20034;-71
2022/06/07 03:24:27;;;;;;;7.63;2.58;;;11.40;1.00;;;;;;4762095;30;20115;-71
2022/06/07 03:26:56;;;;;;;8.35;3.83;;;11.40;1.00;;;;;;4766107;30;20122;-72
2022/06/07 03:29:22;;;;;;;6.70;2.88;;;11.50;1.00;;;;;;4770757;30;20572;-71
2022/06/07 03:31:48;;;;;;;8.52;3.28;;;11.50;1.00;;;;;;4757971;30;20097;-72
2022/06/07 03:34:14;;;;;;;5.82;2.58;;;11.60;1.00;;;;;;4751401;30;20039;-71
2022/06/07 03:36:40;;;;;;;10.23;3.28;;;11.70;1.00;;;;;;4734944;30;20397;-72
2022/06/07 03:39:08;;;;;;;5.25;2.38;;;11.60;1.00;;;;;;4734672;30;20111;-72
2022/06/07 03:41:36;;;;;;;13.00;4.78;;;11.60;1.00;;;;;;4734672;30;20060;-72
2022/06/07 03:44:03;;;;;;;11.65;4.15;;;11.70;1.00;;;;;;4734032;30;20070;-71
2022/06/07 03:46:32;;;;;;;4.60;2.85;;;11.70;1.00;;;;;;4735232;30;20613;-72
2022/06/07 03:48:59;;;;;;;6.40;2.73;;;11.70;1.00;;;;;;4735691;30;20040;-72
2022/06/07 03:51:27;;;;;;;10.75;4.00;;;11.70;1.00;;;;;;4751715;30;20037;-71
2022/06/07 03:53:53;;;;;;;11.35;3.80;;;11.70;30.70;;;;;;4752301;30;20462;-72
2022/06/07 03:56:21;;;;;;;6.57;3.70;;;11.60;95.20;;;;;;4752511;30;20414;-72
2022/06/07 03:58:47;;;;;;;12.88;3.97;;;11.60;99.90;;;;;;4752288;30;20404;-72
2022/06/07 04:01:15;;;;;;;9.48;3.80;;;11.60;99.90;;;;;;4752187;30;20036;-71
2022/06/07 04:03:47;;;;;;;9.10;3.72;;;11.60;99.90;;;;;;4752170;30;20063;-71
2022/06/07 04:06:40;;;;;;;10.43;3.28;;;11.70;99.90;;;;;;4752151;30;20043;-71
2022/06/07 04:09:06;;;;;;;11.95;3.55;;;11.70;99.90;;;;;;4727008;30;20036;-72
2022/06/07 04:11:32;;;;;;;9.18;3.10;;;11.70;99.90;;;;;;4734434;30;20477;-73
2022/06/07 04:13:59;;;;;;;9.40;3.47;;;11.70;99.90;;;;;;4734409;30;20029;-72
2022/06/07 04:16:27;;;;;;;12.35;3.38;;;11.70;99.90;;;;;;4733845;30;20028;-72
2022/06/07 04:18:56;;;;;;;12.10;3.17;;;11.70;99.90;;;;;;4743106;30;20653;-72
2022/06/07 04:21:22;;;;;;;10.23;3.50;;;11.70;99.90;;;;;;4739905;30;20065;-72
2022/06/07 04:23:48;;;;;;;8.80;3.55;;;11.90;86.60;;;;;;4733509;30;20032;-72
2022/06/07 04:26:21;;;;;;;6.60;3.00;;;11.90;74.10;;;;;;4734084;30;20029;-72
2022/06/07 04:28:47;;;;;;;7.15;2.65;;;11.90;60.90;;;;;;4732930;30;20048;-72
2022/06/07 04:31:16;;;;;;;6.03;2.42;;;12.00;60.30;;;;;;4733635;30;20411;-71
2022/06/07 04:33:42;;;;;;;9.82;3.53;;;12.10;54.60;;;;;;4733698;30;20032;-72
2022/06/07 04:36:19;;;;;;;8.00;3.10;;;12.00;32.30;;;;;;4750985;30;20028;-72
2022/06/07 04:38:46;;;;;;;8.10;2.90;;;12.10;37.30;;;;;;4749523;30;20037;-73
2022/06/07 04:41:14;;;;;;;9.65;3.00;;;12.20;56.10;;;;;;4747519;30;20039;-72
2022/06/07 04:43:40;;;;;;;7.05;2.40;;;12.20;79.70;;;;;;4750750;30;20066;-72
2022/06/07 04:46:08;;;;;;;5.63;2.15;;;12.10;93.70;;;;;;4751523;30;20028;-72
2022/06/07 04:48:36;;;;;;;4.72;2.35;;;12.10;99.90;;;;;;4753165;30;20478;-72
2022/06/07 04:51:08;;;;;;;7.50;2.55;;;12.10;99.90;;;;;;4750570;30;20036;-73
2022/06/07 04:53:33;;;;;;;8.07;2.63;;;12.10;99.90;;;;;;4751723;30;20032;-71
2022/06/07 04:56:01;;;;;;;6.00;2.30;;;12.10;99.90;;;;;;4751181;30;20024;-71
2022/06/07 04:58:27;;;;;;;6.30;2.80;;;12.00;99.90;;;;;;4751332;30;20024;-71
2022/06/07 05:00:52;;;;;;;6.05;2.20;;;12.00;99.90;;;;;;4751448;30;20032;-71
2022/06/07 05:03:19;;;;;;;6.72;2.28;;;12.00;99.90;;;;;;4751163;30;20487;-71
2022/06/07 05:05:44;;;;;;;6.68;2.30;;;11.90;99.90;;;;;;4750298;30;20031;-71
2022/06/07 05:08:11;;;;;;;4.18;1.60;;;12.00;99.90;;;;;;4733826;30;20033;-72
2022/06/07 05:10:39;;;;;;;3.60;1.20;;;11.80;99.90;;;;;;4733411;30;20044;-71
2022/06/07 05:13:09;;;;;;;5.35;0.80;;;11.70;99.90;;;;;;4737379;30;20079;-71
2022/06/07 05:15:35;;;;;;;2.35;0.77;;;11.60;99.90;;;;;;4750887;30;20103;-72
2022/06/07 05:18:00;;;;;;;5.18;0.80;;;11.60;99.90;;;;;;4750831;30;20124;-72
2022/06/07 05:20:26;;;;;;;5.13;1.00;;;11.50;99.90;;;;;;4750870;30;20031;-72
2022/06/07 05:22:52;;;;;;;3.60;0.88;;;11.60;99.90;;;;;;4748171;30;21839;-72
2022/06/07 05:25:18;;;;;;;4.68;1.23;;;11.60;99.90;;;;;;4734844;30;20029;-72
2022/06/07 05:27:47;;;;;;;2.17;0.80;;;11.60;99.90;;;;;;4750560;30;20024;-72
2022/06/07 05:30:15;;;;;;;3.13;1.05;;;11.60;99.90;;;;;;4749468;30;20034;-71
2022/06/07 05:32:40;;;;;;;1.40;0.88;;;11.60;99.90;;;;;;4733443;30;20032;-72
2022/06/07 05:35:07;;;;;;;4.45;1.13;;;11.70;99.90;;;;;;4732892;30;20044;-71
2022/06/07 05:37:34;;;;;;;7.47;1.40;;;11.80;99.90;;;;;;4732819;30;20032;-72
2022/06/07 05:40:03;;;;;;;3.28;1.40;;;11.90;99.90;;;;;;4732672;30;20441;-72
2022/06/07 05:42:29;;;;;;;4.65;1.25;;;12.00;99.90;;;;;;4733049;30;20670;-72
2022/06/07 05:44:57;;;;;;;8.80;2.25;;;12.10;99.90;;;;;;4741551;30;20110;-72
2022/06/07 05:47:22;;;;;;;6.78;1.33;;;12.10;99.90;;;;;;4750835;30;20059;-72
2022/06/07 05:49:48;;;;;;;8.23;1.98;;;12.20;99.90;;;;;;4750517;30;20440;-71
2022/06/07 05:52:13;;;;;;;8.48;1.60;;;12.20;99.90;;;;;;4750832;30;20121;-72
2022/06/07 05:54:39;;;;;;;8.82;2.03;;;12.30;99.90;;;;;;4745036;30;20029;-72
2022/06/07 05:57:06;;;;;;;5.93;1.45;;;12.30;99.90;;;;;;4732002;30;20058;-72
2022/06/07 05:59:32;;;;;;;9.05;1.85;;;12.40;99.90;;;;;;4732803;30;20025;-72
2022/06/07 06:01:58;;;;;;;6.65;1.85;;;12.60;99.90;;;;;;4733148;30;20043;-72
2022/06/07 06:04:25;;;;;;;7.82;1.45;;;12.90;99.90;;;;;;4732802;30;20518;-72
2022/06/07 06:06:50;;;;;;;8.05;2.15;;;12.90;99.90;;;;;;4733318;30;20351;-72
2022/06/07 06:12:00;;;;;;;8.40;1.90;;;13.20;99.90;;;;;;4732946;30;20080;-72
2022/06/07 06:14:26;;;;;;;5.07;1.25;;;13.20;99.90;;;;;;4732335;30;20068;-71
2022/06/07 06:16:52;;;;;;;12.20;2.67;;;13.20;99.90;;;;;;4735301;30;20039;-71
2022/06/07 06:19:19;;;;;;;5.78;1.73;;;13.40;99.90;;;;;;4750631;30;20024;-71
2022/06/07 06:21:45;;;;;;;7.25;1.70;;;13.60;99.90;;;;;;4750080;30;20369;-71
2022/06/07 06:24:12;;;;;;;7.90;1.40;;;13.50;99.90;;;;;;4750383;30;20043;-72
2022/06/07 06:26:39;;;;;;;4.55;1.00;;;13.40;99.90;;;;;;4743758;30;20043;-72
2022/06/07 06:29:05;;;;;;;6.38;0.82;;;13.30;99.90;;;;;;4732780;30;20462;-72
2022/06/07 06:31:30;;;;;;;3.67;1.10;;;13.30;99.90;;;;;;4732374;30;20029;-72
2022/06/07 06:33:56;;;;;;;4.43;1.38;;;13.30;99.90;;;;;;4732965;30;20437;-72
2022/06/07 06:36:26;;;;;;;6.28;1.60;;;13.20;99.90;;;;;;4732821;30;20029;-72
2022/06/07 06:38:52;;;;;;;;;;;13.20;99.90;;;;;;4733002;30;20502;-72
2022/06/07 06:41:30;;;;;;;5.80;1.10;;;13.30;99.90;;;;;;4735508;30;20060;-72
2022/06/07 06:44:04;;;;;;;7.15;1.20;;;13.50;18.40;;;;;;4734562;30;20065;-72
2022/06/07 06:46:35;;;;;;;7.90;1.33;;;13.60;99.90;;;;;;4735758;30;20094;-72
2022/06/07 06:49:03;;;;;;;5.53;1.65;;;13.90;99.90;;;;;;4735843;30;20059;-72
2022/06/07 06:51:29;;;;;;;5.82;1.40;;;14.10;33.20;;;;;;4739277;30;20451;-72
2022/06/07 06:53:59;;;;;;;5.85;1.25;;;14.20;1.00;;;;;;4761940;30;20031;-72
2022/06/07 06:56:28;;;;;;;7.47;1.20;;;14.30;1.00;;;;;;4770311;30;20565;-72
2022/06/07 06:58:54;;;;;;;3.17;1.20;;;14.40;1.00;;;;;;4771105;30;20115;-72
2022/06/07 07:01:23;;;;;;;4.35;1.17;;;14.50;1.00;;;;;;4757700;30;20032;-72
2022/06/07 07:03:49;;;;;;;6.93;1.25;;;14.70;99.90;;;;;;4759903;30;20643;-72
2022/06/07 07:06:15;;;;;;;6.88;1.50;;;14.90;1.00;;;;;;4770587;30;20110;-71
2022/06/07 07:08:43;;;;;;;5.65;1.13;;;15.10;99.90;;;;;;4755034;30;20051;-72
2022/06/07 07:11:19;;;;;;;3.28;1.10;;;15.40;99.90;;;;;;4745871;30;20407;-72
2022/06/07 07:13:47;;;;;;;5.80;1.23;;;15.60;99.90;;;;;;4752812;30;20033;-71
2022/06/07 07:16:17;;;;;;;3.03;1.23;;;15.80;99.90;;;;;;4753065;30;20028;-72
2022/06/07 07:18:43;;;;;;;6.75;1.13;;;16.20;99.90;;;;;;4769222;30;20042;-72
2022/06/07 07:21:14;;;;;;;11.60;1.30;;;16.40;99.90;;;;;;4769184;30;20032;-72
2022/06/07 07:23:40;;;;;;;8.63;1.48;;;16.60;99.90;;;;;;4758670;30;20032;-72
2022/06/07 07:26:09;;;;;;;7.57;1.33;;;16.40;99.90;;;;;;4759907;30;20504;-72
2022/06/07 07:28:36;;;;;;;6.20;1.17;;;16.50;99.90;;;;;;4752828;30;20471;-72
2022/06/07 07:31:04;;;;;;;3.90;1.17;;;16.40;99.90;;;;;;4752458;30;20150;-71
2022/06/07 07:33:31;;;;;;;6.93;1.52;;;16.20;99.90;;;;;;4752786;30;20032;-72
2022/06/07 07:35:59;;;;;;;6.85;1.27;;;16.10;99.90;;;;;;4734918;30;20029;-72
2022/06/07 07:38:25;;;;;;;12.35;1.67;;;16.20;99.90;;;;;;4740512;30;20032;-72
2022/06/07 07:40:51;;;;;;;4.15;0.90;;;16.40;99.90;;;;;;4752439;30;20037;-72
2022/06/07 07:43:18;;;;;;;5.20;1.35;;;16.40;99.90;;;;;;4748084;30;20017;-72
2022/06/07 07:45:44;;;;;;;6.35;0.88;;;16.20;99.90;;;;;;4733385;30;20073;-72
2022/06/07 07:48:10;;;;;;;5.50;1.02;;;16.40;99.90;;;;;;4734560;30;20035;-71
2022/06/07 07:50:37;;;;;;;4.05;0.80;;;16.50;99.90;;;;;;4734541;30;20037;-72
2022/06/07 07:53:03;;;;;;;3.70;0.63;;;16.40;99.90;;;;;;4733859;30;20116;-72
2022/06/07 07:55:29;;;;;;;7.35;1.42;;;16.20;99.90;;;;;;4734749;30;20107;-73
2022/06/07 07:57:55;;;;;;;10.80;1.48;;;16.10;99.90;;;;;;4734494;30;20528;-72
2022/06/07 08:00:21;;;;;;;4.45;0.80;;;16.10;99.90;;;;;;4718864;30;20539;-72
2022/06/07 08:02:46;;;;;;;2.88;0.77;;;16.10;99.90;;;;;;4734229;30;20033;-72
2022/06/07 08:05:12;;;;;;;3.85;0.93;;;16.30;99.90;;;;;;4734492;30;20036;-72
2022/06/07 08:07:37;;;;;;;4.93;0.82;;;16.80;99.90;;;;;;4734039;30;20684;-72
2022/06/07 08:10:05;;;;;;;5.10;1.42;;;18.50;99.90;;;;;;4734283;30;20029;-72
2022/06/07 08:12:31;;;;;;;4.28;1.25;;;19.70;99.90;;;;;;4742311;30;20641;-72
2022/06/07 08:14:58;;;;;;;5.63;0.70;;;20.80;44.50;;;;;;4752095;30;20038;-72
2022/06/07 08:17:25;;;;;;;3.05;0.50;;;20.70;1.00;;;;;;4751553;30;20051;-72
2022/06/07 08:19:50;;;;;;;4.47;1.00;;;20.50;22.20;;;;;;4734371;30;20041;-72
2022/06/07 08:22:16;;;;;;;4.70;0.85;;;20.00;13.20;;;;;;4733867;30;20028;-72
2022/06/07 08:24:42;;;;;;;6.28;0.93;;;19.80;9.10;;;;;;4734231;30;20035;-72
2022/06/07 08:27:09;;;;;;;8.25;1.00;;;20.00;2.00;;;;;;4734096;30;20044;-72
2022/06/07 08:29:34;;;;;;;7.28;0.60;;;19.70;12.30;;;;;;4746141;30;20035;-72
2022/06/07 08:32:00;;;;;;;3.75;0.90;;;19.70;11.50;;;;;;4751493;30;20040;-72
2022/06/07 08:39:54;;;;;;;5.65;0.75;;;19.70;47.60;;;;;;4733827;30;20157;-72
2022/06/07 08:42:28;;;;;;;7.40;0.88;;;18.90;58.40;;;;;;4733483;30;20032;-72
2022/06/07 08:45:07;;;;;;;3.92;0.55;;;18.50;23.00;;;;;;4750441;30;20056;-72
2022/06/07 08:47:46;;;;;;;3.50;0.90;;;18.50;51.80;;;;;;4742233;30;20393;-72
2022/06/07 08:50:29;;;;;;;2.60;1.08;;;18.90;42.60;;;;;;4733473;30;20414;-72
2022/06/07 08:53:20;;;;;;;7.93;0.70;;;18.30;25.40;;;;;;4734254;30;20494;-72
2022/06/07 08:55:54;;;;;;;4.18;0.63;;;18.20;28.80;;;;;;4751171;30;20036;-72
2022/06/07 08:58:33;;;;;;;2.42;0.57;;;18.30;9.00;;;;;;4736291;30;20047;-72
2022/06/07 09:01:17;;;;;;;2.40;0.50;;;18.40;40.10;;;;;;4733510;30;20025;-72
2022/06/07 09:04:12;;;;;;;3.63;0.50;;;18.60;23.80;;;;;;4733502;30;20032;-71
2022/06/07 09:06:42;;;;;;;4.07;0.75;;;18.40;1.00;;;;;;4737712;30;20032;-73
2022/06/07 09:09:10;;;;;;;4.45;0.75;;;18.60;1.00;;;;;;4768760;30;20040;-72
2022/06/07 09:14:30;;;;;;;2.63;0.68;;;18.90;23.40;;;;;;4766626;30;20127;-72
2022/06/07 09:16:58;;;;;;;2.85;1.25;;;21.30;1.00;;;;;;4751103;30;20085;-72
2022/06/07 09:19:27;;;;;;;5.85;0.60;;;20.90;1.00;;;;;;4751060;30;20151;-72
2022/06/07 09:21:56;;;;;;;3.70;1.47;;;20.40;1.00;;;;;;4751069;30;20373;-72
2022/06/07 09:24:39;;;;;;;4.97;0.70;;;20.30;1.00;;;;;;4750904;30;20077;-72
2022/06/07 09:27:15;;;;;;;3.13;0.60;;;20.60;1.00;;;;;;4751097;30;20111;-72
2022/06/07 09:29:42;;;;;;;2.28;0.60;;;20.70;1.00;;;;;;4751107;30;20033;-72
2022/06/07 09:32:17;;;;;;;3.00;0.50;;;20.90;1.00;;;;;;4751089;30;20386;-72
2022/06/07 09:34:58;;;;;;;4.65;0.98;;;20.40;1.00;;;;;;4733350;30;20482;-72
2022/06/07 09:37:29;;;;;;;4.65;0.70;;;20.20;1.00;;;;;;4733364;30;20040;-72
2022/06/07 09:40:16;;;;;;;2.85;0.65;;;19.90;1.00;;;;;;4733103;30;20029;-72
2022/06/07 09:42:42;;;;;;;1.50;0.65;;;19.80;1.00;;;;;;4733027;30;20490;-72
2022/06/07 09:45:13;;;;;;;2.35;0.52;;;19.60;1.00;;;;;;4732208;30;20057;-72
2022/06/07 09:47:39;;;;;;;4.53;0.70;;;19.60;1.00;;;;;;4758947;30;20028;-72
2022/06/07 09:50:17;;;;;;;3.05;0.55;;;19.80;1.00;;;;;;4762884;30;20090;-72
2022/06/07 09:52:47;;;;;;;3.80;0.68;;;19.40;1.00;;;;;;4762788;30;20576;-72
2022/06/07 09:55:27;;;;;;;2.15;0.60;;;19.30;1.00;;;;;;4768316;30;20024;-72
2022/06/07 09:58:32;;;;;;;3.90;0.70;;;19.10;1.00;;;;;;4764878;30;20037;-72
2022/06/07 10:01:12;;;;;;;3.42;0.85;;;18.80;1.00;;;;;;4750151;30;20036;-72
2022/06/07 10:03:50;;;;;;;3.22;0.60;;;18.80;1.00;;;;;;4749683;30;20036;-72
2022/06/07 10:06:28;;;;;;;6.65;0.80;;;18.80;1.00;;;;;;4735013;30;20040;-71
2022/06/07 10:09:19;;;;;;;5.32;0.60;;;18.50;1.00;;;;;;4737640;30;20466;-72
2022/06/07 10:12:22;;;;;;;3.22;0.70;;;18.40;11.40;;;;;;4749607;30;20692;-71
2022/06/07 10:15:05;;;;;;;3.42;0.80;;;18.40;16.00;;;;;;4733189;30;20032;-72
2022/06/07 10:17:40;;;;;;;6.95;1.17;;;18.90;1.00;;;;;;4740410;30;20062;-72
2022/06/07 10:20:41;;;;;;;4.45;0.93;;;19.70;1.00;;;;;;4753979;30;20106;-72
2022/06/07 10:23:16;;;;;;;1.65;0.70;;;20.80;1.00;;;;;;4747584;30;20107;-72
2022/06/07 10:26:06;;;;;;;5.30;0.90;;;21.30;1.00;;;;;;4735342;30;20059;-72
2022/06/07 10:28:46;;;;;;;2.15;0.57;;;21.50;1.00;;;;;;4742440;30;20049;-72
2022/06/07 10:31:12;;;;;;;;;;;22.00;1.00;;;;;;4753085;30;20044;-72
2022/06/07 10:33:49;;;;;;;3.35;0.80;;;21.70;1.00;;;;;;4743981;30;20326;-72
2022/06/07 10:36:32;;;;;;;4.32;0.77;;;22.40;1.00;;;;;;4738031;30;20099;-72
2022/06/07 10:39:42;;;;;;;2.53;0.63;;;24.10;1.00;;;;;;4746936;30;20703;-72
2022/06/07 10:42:18;;;;;;;;;;;24.40;1.00;;;;;;4741082;30;20075;-73
2022/06/07 10:44:52;;;;;;;2.60;0.70;;;23.70;1.00;;;;;;4746349;30;20030;-72
2022/06/07 10:47:31;;;;;;;3.47;0.80;;;23.70;1.00;;;;;;4736780;30;20474;-72
2022/06/07 10:50:30;;;;;;;3.13;0.65;;;23.90;1.00;;;;;;4748139;30;20510;-72
2022/06/07 10:53:30;;;;;;;2.58;0.70;;;22.80;1.00;;;;;;4742836;30;20102;-72
2022/06/07 10:56:16;;;;;;;3.03;0.50;;;22.00;1.00;;;;;;4742263;30;20092;-72
2022/06/07 10:58:48;;;;;;;3.95;0.80;;;22.40;1.00;;;;;;4745436;30;20054;-72
2022/06/07 11:01:37;;;;;;;3.95;0.65;;;22.20;1.00;;;;;;4736032;30;20041;-73
2022/06/07 11:10:23;;;;;;;5.15;0.70;;;23.40;1.00;;;;;;4752987;30;20085;-72
2022/06/07 11:13:20;;;;;;;4.75;0.68;;;24.70;1.00;;;;;;4752429;30;20043;-73
2022/06/07 11:15:59;;;;;;;2.17;0.52;;;24.60;1.00;;;;;;4745996;30;20029;-73
2022/06/07 11:18:26;;;;;;;1.98;0.52;;;23.80;1.00;;;;;;4750169;30;20137;-74
2022/06/07 11:21:01;;;;;;;2.65;0.50;;;24.50;1.00;;;;;;4734344;30;20036;-74
2022/06/07 11:23:29;;;;;;;3.72;0.73;;;24.00;1.00;;;;;;4742571;30;20028;-73
2022/06/07 11:26:05;;;;;;;2.55;0.57;;;23.30;1.00;;;;;;4733817;30;20048;-74
2022/06/07 11:28:39;;;;;;;1.20;0.57;;;24.10;1.00;;;;;;4734377;30;20025;-74
2022/06/07 11:31:23;;;;;;;3.80;0.50;;;24.20;1.00;;;;;;4734352;30;20047;-73
2022/06/07 11:33:52;;;;;;;2.70;0.70;;;24.40;1.00;;;;;;4734483;30;20028;-71
2022/06/07 11:36:20;;;;;;;2.42;0.70;;;23.90;1.00;;;;;;4734138;30;20587;-73
2022/06/07 11:38:55;;;;;;;3.35;1.08;;;25.00;1.00;;;;;;4759472;30;20089;-73
2022/06/07 11:41:39;;;;;;;3.13;0.65;;;25.30;1.00;;;;;;4736624;30;20037;-73
2022/06/07 11:44:27;;;;;;;2.90;0.95;;;25.10;1.00;;;;;;4756111;30;20024;-74
2022/06/07 11:46:55;;;;;;;3.17;0.93;;;24.90;1.00;;;;;;4747459;30;20036;-74
2022/06/07 11:49:24;;;;;;;3.83;0.95;;;23.90;1.00;;;;;;4734046;30;20029;-74
2022/06/07 11:52:13;;;;;;;2.72;0.80;;;24.50;1.00;;;;;;4740628;30;20051;-74
2022/06/07 11:54:53;;;;;;;3.15;0.80;;;24.60;1.00;;;;;;4748391;30;20036;-73
2022/06/07 11:57:28;;;;;;;2.72;0.80;;;24.20;1.00;;;;;;4760688;30;20135;-74
2022/06/07 11:59:58;;;;;;;2.42;0.80;;;24.10;1.00;;;;;;4766361;30;20077;-74
2022/06/07 12:02:35;;;;;;;3.25;0.80;;;23.90;1.00;;;;;;4751354;30;20453;-74
2022/06/07 12:05:29;;;;;;;6.68;0.93;;;23.40;1.00;;;;;;4764070;30;20710;-74
2022/06/07 12:07:59;;;;;;;5.50;1.02;;;23.40;1.00;;;;;;4745425;30;20107;-74
2022/06/07 12:10:33;;;;;;;3.55;0.90;;;22.60;1.00;;;;;;4763934;30;20029;-74
2022/06/07 12:13:13;;;;;;;3.97;0.90;;;22.30;1.00;;;;;;4751508;30;20066;-74
2022/06/07 12:15:48;;;;;;;3.92;0.93;;;22.00;1.00;;;;;;4739306;30;20091;-73
2022/06/07 12:18:26;;;;;;;5.63;1.00;;;22.50;1.00;;;;;;4751154;30;20135;-73
2022/06/07 12:21:01;;;;;;;4.28;1.05;;;22.40;1.00;;;;;;4752329;30;20115;-73
2022/06/07 12:23:41;;;;;;;5.25;0.95;;;22.00;1.00;;;;;;4768698;30;20042;-73
2022/06/07 12:26:27;;;;;;;5.38;1.10;;;22.20;1.00;;;;;;4769382;30;20036;-73
2022/06/07 12:29:11;;;;;;;4.30;1.33;;;23.10;1.00;;;;;;4752880;30;20037;-73
2022/06/07 12:31:58;;;;;;;5.35;1.38;;;22.80;1.00;;;;;;4734922;30;20045;-73
2022/06/07 12:34:25;;;;;;;7.40;1.30;;;22.30;1.00;;;;;;4733567;30;20035;-73
2022/06/07 12:37:08;;;;;;;7.55;1.30;;;21.90;1.00;;;;;;4733113;30;20029;-73
2022/06/07 12:39:58;;;;;;;4.00;1.20;;;21.60;1.00;;;;;;4733241;30;20052;-73
2022/06/07 12:42:27;;;;;;;;;;;21.40;1.00;;;;;;4764254;30;20035;-73
2022/06/07 12:45:18;;;;;;;9.45;1.98;;;21.10;1.00;;;;;;4767648;30;19926;-74
2022/06/07 12:47:44;;;;;;;6.95;1.60;;;20.70;1.00;;;;;;4762163;30;20043;-73
2022/06/07 12:50:28;;;;;;;4.68;1.20;;;21.00;1.00;;;;;;4768711;30;20023;-73
2022/06/07 12:52:55;;;;;;;6.07;1.15;;;21.40;1.00;;;;;;4755717;30;20028;-73
2022/06/07 12:55:26;;;;;;;4.13;1.10;;;21.90;1.00;;;;;;4746631;30;20028;-73
2022/06/07 12:57:58;;;;;;;7.20;1.15;;;21.90;1.00;;;;;;4755125;30;20055;-73
2022/06/07 13:00:52;;;;;;;5.85;1.33;;;21.80;1.00;;;;;;4725886;30;20374;-73
2022/06/07 13:03:34;;;;;;;2.83;1.30;;;21.70;1.00;;;;;;4748208;30;20405;-73
2022/06/07 13:06:15;;;;;;;3.17;0.70;;;21.40;1.00;;;;;;4768089;30;20086;-73
2022/06/07 13:08:41;;;;;;;5.18;1.30;;;20.90;1.00;;;;;;4747012;30;20432;-73
2022/06/07 13:11:13;;;;;;;3.35;0.93;;;21.60;1.00;;;;;;4760668;30;20039;-73
2022/06/07 13:13:54;;;;;;;5.28;1.10;;;21.00;1.00;;;;;;4751466;30;20484;-73
2022/06/07 13:16:19;;;;;;;4.72;1.00;;;21.40;1.00;;;;;;4762040;30;20524;-73
2022/06/07 13:19:24;;;;;;;4.85;0.80;;;21.40;1.00;;;;;;4752030;30;20039;-73
2022/06/07 13:21:56;;;;;;;7.32;1.50;;;21.60;1.00;;;;;;4749898;30;20029;-73
2022/06/07 13:24:25;;;;;;;6.50;1.20;;;21.30;1.00;;;;;;4747882;30;20024;-73
2022/06/07 13:27:00;;;;;;;8.90;1.60;;;21.00;1.00;;;;;;4733383;30;20036;-73
2022/06/07 13:29:30;;;;;;;3.75;1.13;;;20.80;1.00;;;;;;4757683;30;20016;-73
2022/06/07 13:32:02;;;;;;;4.97;1.52;;;20.70;1.00;;;;;;4766210;30;20396;-73
2022/06/07 13:34:34;;;;;;;7.20;1.13;;;20.60;1.00;;;;;;4768200;30;20031;-73
2022/06/07 13:37:05;;;;;;;2.95;1.15;;;20.90;1.00;;;;;;4754865;30;20169;-73